Time,TemperatureF,DewpointF,PressureIn,WindDirection,WindDirectionDegrees,WindSpeedMPH,WindSpeedGustMPH,Humidity,HourlyPrecipIn,Conditions,Clouds,dailyrainin,SoftwareType,DateUTC
2013-04-17 00:02:00,49.0,32.0,29.99,NE,37,0.0,0.0,52,0.00,,,0.00,,2013-04-17 07:02:00,
2013-04-17 00:21:00,49.0,32.0,29.99,NE,37,0.0,1.0,52,0.00,,,0.00,,2013-04-17 07:21:00,
2013-04-17 00:32:00,48.0,32.0,30.00,NE,37,0.0,0.0,53,0.00,,,0.00,,2013-04-17 07:32:00,
2013-04-17 00:52:00,48.0,31.0,30.00,NE,37,0.0,0.0,51,0.00,,,0.00,,2013-04-17 07:52:00,
2013-04-17 01:02:00,47.0,29.0,30.00,NE,37,0.0,0.0,49,0.00,,,0.00,,2013-04-17 08:02:00,
2013-04-17 01:21:00,46.0,28.0,30.01,NE,37,0.0,0.0,50,0.00,,,0.00,,2013-04-17 08:21:00,
2013-04-17 01:32:00,49.0,26.0,30.01,NNE,22,0.0,2.0,40,0.00,,,0.00,,2013-04-17 08:32:00,
2013-04-17 01:41:00,49.0,26.0,30.01,NNE,22,0.0,2.0,40,0.00,,,0.00,,2013-04-17 08:41:00,
2013-04-17 01:52:00,56.0,23.0,30.01,NW,315,0.0,4.0,28,0.00,,,0.00,,2013-04-17 08:52:00,
2013-04-17 02:02:00,58.0,21.0,30.01,NNW,340,0.0,3.0,24,0.00,,,0.00,,2013-04-17 09:02:00,
2013-04-17 02:11:00,58.0,21.0,30.01,NNW,340,0.0,3.0,24,0.00,,,0.00,,2013-04-17 09:11:00,
2013-04-17 02:32:00,59.0,20.0,30.01,NNW,336,0.0,3.0,22,0.00,,,0.00,,2013-04-17 09:32:00,
2013-04-17 02:52:00,59.0,20.0,30.01,North,9,0.0,4.0,22,0.00,,,0.00,,2013-04-17 09:52:00,
2013-04-17 03:02:00,59.0,19.0,30.02,NNW,347,0.0,2.0,21,0.00,,,0.00,,2013-04-17 10:02:00,
2013-04-17 03:22:00,59.0,20.0,30.01,North,360,0.0,3.0,22,0.00,,,0.00,,2013-04-17 10:22:00,
2013-04-17 03:32:00,58.0,19.0,30.01,NW,325,0.0,6.0,22,0.00,,,0.00,,2013-04-17 10:32:00,
2013-04-17 03:52:00,58.0,20.0,30.02,NW,325,0.0,1.0,23,0.00,,,0.00,,2013-04-17 10:52:00,
2013-04-17 04:02:00,55.0,25.0,30.02,NW,326,0.0,0.0,31,0.00,,,0.00,,2013-04-17 11:02:00,
2013-04-17 04:11:00,55.0,25.0,30.02,NW,326,0.0,0.0,31,0.00,,,0.00,,2013-04-17 11:11:00,
2013-04-17 04:21:00,50.0,26.0,30.02,NW,325,0.0,0.0,39,0.00,,,0.00,,2013-04-17 11:21:00,
2013-04-17 04:32:00,48.0,30.0,30.03,NW,325,0.0,1.0,49,0.00,,,0.00,,2013-04-17 11:32:00,
2013-04-17 04:42:00,48.0,30.0,30.03,NW,325,0.0,1.0,49,0.00,,,0.00,,2013-04-17 11:42:00,
2013-04-17 04:52:00,48.0,33.0,30.03,NW,326,0.0,0.0,55,0.00,,,0.00,,2013-04-17 11:52:00,
2013-04-17 05:02:00,47.0,33.0,30.04,NW,325,0.0,0.0,58,0.00,,,0.00,,2013-04-17 12:02:00,
2013-04-17 05:12:00,47.0,33.0,30.04,NW,325,0.0,0.0,58,0.00,,,0.00,,2013-04-17 12:12:00,
2013-04-17 05:22:00,45.0,30.0,30.04,NNW,327,0.0,0.0,56,0.00,,,0.00,,2013-04-17 12:22:00,
2013-04-17 05:32:00,44.0,30.0,30.04,NNW,327,0.0,0.0,57,0.00,,,0.00,,2013-04-17 12:32:00,
2013-04-17 05:42:00,44.0,30.0,30.04,NNW,327,0.0,0.0,57,0.00,,,0.00,,2013-04-17 12:42:00,
2013-04-17 05:51:00,44.0,30.0,30.04,NNW,327,0.0,0.0,57,0.00,,,0.00,,2013-04-17 12:51:00,
2013-04-17 06:02:00,43.0,29.0,30.05,NNW,327,0.0,0.0,58,0.00,,,0.00,,2013-04-17 13:02:00,
2013-04-17 06:11:00,43.0,29.0,30.05,NNW,327,0.0,0.0,58,0.00,,,0.00,,2013-04-17 13:11:00,
2013-04-17 06:22:00,43.0,29.0,30.06,NNW,327,0.0,0.0,57,0.00,,,0.00,,2013-04-17 13:22:00,
2013-04-17 06:32:00,43.0,29.0,30.06,NNW,327,0.0,1.0,57,0.00,,,0.00,,2013-04-17 13:32:00,
2013-04-17 06:42:00,43.0,29.0,30.06,NNW,327,0.0,1.0,57,0.00,,,0.00,,2013-04-17 13:42:00,
2013-04-17 06:52:00,43.0,27.0,30.06,NNW,327,0.0,0.0,53,0.00,,,0.00,,2013-04-17 13:52:00,
2013-04-17 07:02:00,42.0,26.0,30.07,NNW,327,0.0,0.0,53,0.00,,,0.00,,2013-04-17 14:02:00,
2013-04-17 07:11:00,42.0,26.0,30.07,NNW,327,0.0,0.0,53,0.00,,,0.00,,2013-04-17 14:11:00,
2013-04-17 07:21:00,42.0,26.0,30.07,NNW,327,0.0,0.0,53,0.00,,,0.00,,2013-04-17 14:21:00,
2013-04-17 07:32:00,45.0,30.0,30.08,NNW,335,0.0,2.0,56,0.00,,,0.00,,2013-04-17 14:32:00,
2013-04-17 07:41:00,45.0,30.0,30.08,NNW,335,0.0,2.0,56,0.00,,,0.00,,2013-04-17 14:41:00,
2013-04-17 07:52:00,45.0,30.0,30.08,NNW,335,0.0,2.0,56,0.00,,,0.00,,2013-04-17 14:52:00,
2013-04-17 08:02:00,45.0,30.0,30.08,NNW,335,0.0,2.0,56,0.00,,,0.00,,2013-04-17 15:02:00,
2013-04-17 08:11:00,58.0,29.0,30.09,WNW,302,0.0,4.0,33,0.00,,,0.00,,2013-04-17 15:11:00,
2013-04-17 08:33:00,59.0,26.0,30.09,East,92,2.0,6.0,28,0.00,,,0.00,,2013-04-17 15:33:00,
2013-04-17 08:42:00,59.0,26.0,30.09,East,92,2.0,6.0,28,0.00,,,0.00,,2013-04-17 15:42:00,
2013-04-17 08:52:00,60.0,26.0,30.10,East,84,0.0,4.0,27,0.00,,,0.00,,2013-04-17 15:52:00,
2013-04-17 09:03:00,62.0,25.0,30.10,East,91,0.0,2.0,24,0.00,,,0.00,,2013-04-17 16:03:00,
2013-04-17 09:22:00,62.0,25.0,30.10,East,91,0.0,2.0,24,0.00,,,0.00,,2013-04-17 16:22:00,
2013-04-17 09:32:00,62.0,25.0,30.10,East,91,0.0,2.0,24,0.00,,,0.00,,2013-04-17 16:32:00,
2013-04-17 09:41:00,62.0,25.0,30.10,East,91,0.0,2.0,24,0.00,,,0.00,,2013-04-17 16:41:00,
2013-04-17 10:33:00,67.0,22.0,30.09,SW,235,2.0,6.0,18,0.00,,,0.00,,2013-04-17 17:33:00,
2013-04-17 10:42:00,67.0,22.0,30.09,SW,235,2.0,6.0,18,0.00,,,0.00,,2013-04-17 17:42:00,
2013-04-17 10:52:00,67.0,23.0,30.09,SW,223,3.0,8.0,19,0.00,,,0.00,,2013-04-17 17:52:00,
2013-04-17 11:02:00,67.0,23.0,30.09,SSW,200,1.0,7.0,19,0.00,,,0.00,,2013-04-17 18:02:00,
2013-04-17 11:11:00,67.0,23.0,30.09,SSW,200,1.0,7.0,19,0.00,,,0.00,,2013-04-17 18:11:00,
2013-04-17 11:22:00,69.0,19.0,30.09,SSW,194,1.0,5.0,15,0.00,,,0.00,,2013-04-17 18:22:00,
2013-04-17 11:32:00,69.0,24.0,30.09,SSW,197,2.0,7.0,18,0.00,,,0.00,,2013-04-17 18:32:00,
2013-04-17 11:42:00,69.0,24.0,30.09,SSW,197,2.0,7.0,18,0.00,,,0.00,,2013-04-17 18:42:00,
2013-04-17 11:52:00,69.0,24.0,30.09,SSW,197,2.0,7.0,18,0.00,,,0.00,,2013-04-17 18:52:00,
2013-04-17 12:02:00,70.0,26.0,30.07,SW,224,3.0,9.0,19,0.00,,,0.00,,2013-04-17 19:02:00,
2013-04-17 12:11:00,70.0,26.0,30.07,SW,224,3.0,9.0,19,0.00,,,0.00,,2013-04-17 19:11:00,
2013-04-17 12:22:00,69.0,25.0,30.07,WNW,284,3.0,10.0,19,0.00,,,0.00,,2013-04-17 19:22:00,
2013-04-17 12:32:00,70.0,25.0,30.07,SSW,198,5.0,10.0,18,0.00,,,0.00,,2013-04-17 19:32:00,
2013-04-17 12:42:00,70.0,22.0,30.06,WNW,284,3.0,14.0,16,0.00,,,0.00,,2013-04-17 19:42:00,
2013-04-17 12:52:00,70.0,22.0,30.06,WNW,284,3.0,14.0,16,0.00,,,0.00,,2013-04-17 19:52:00,
2013-04-17 13:02:00,70.0,20.0,30.06,South,175,4.0,10.0,15,0.00,,,0.00,,2013-04-17 20:02:00,
2013-04-17 13:12:00,70.0,20.0,30.06,South,175,4.0,10.0,15,0.00,,,0.00,,2013-04-17 20:12:00,
2013-04-17 13:22:00,70.0,20.0,30.06,South,175,4.0,10.0,15,0.00,,,0.00,,2013-04-17 20:22:00,
2013-04-17 13:32:00,71.0,19.0,30.07,NW,306,6.0,13.0,14,0.00,,,0.00,,2013-04-17 20:32:00,
2013-04-17 13:42:00,71.0,19.0,30.07,NW,306,6.0,13.0,14,0.00,,,0.00,,2013-04-17 20:42:00,
2013-04-17 13:52:00,71.0,23.0,30.06,WSW,243,5.0,11.0,16,0.00,,,0.00,,2013-04-17 20:52:00,
2013-04-17 14:02:00,72.0,25.0,30.06,SW,232,4.0,10.0,17,0.00,,,0.00,,2013-04-17 21:02:00,
2013-04-17 14:11:00,72.0,25.0,30.06,SW,232,4.0,10.0,17,0.00,,,0.00,,2013-04-17 21:11:00,
2013-04-17 14:22:00,71.0,23.0,30.06,SSW,196,4.0,14.0,16,0.00,,,0.00,,2013-04-17 21:22:00,
2013-04-17 14:32:00,72.0,25.0,30.06,SW,219,6.0,10.0,17,0.00,,,0.00,,2013-04-17 21:32:00,
2013-04-17 14:42:00,71.0,25.0,30.06,SW,216,5.0,14.0,18,0.00,,,0.00,,2013-04-17 21:42:00,
2013-04-17 14:53:00,71.0,25.0,30.06,SW,216,5.0,14.0,18,0.00,,,0.00,,2013-04-17 21:53:00,
2013-04-17 15:02:00,72.0,29.0,30.05,SE,135,6.0,12.0,20,0.00,,,0.00,,2013-04-17 22:02:00,
2013-04-17 15:12:00,72.0,29.0,30.05,SE,135,6.0,12.0,20,0.00,,,0.00,,2013-04-17 22:12:00,
2013-04-17 15:22:00,72.0,27.0,30.04,SSW,203,6.0,12.0,19,0.00,,,0.00,,2013-04-17 22:22:00,
2013-04-17 15:32:00,72.0,26.0,30.04,South,191,6.0,12.0,18,0.00,,,0.00,,2013-04-17 22:32:00,
2013-04-17 15:42:00,72.0,29.0,30.04,SSW,200,6.0,15.0,20,0.00,,,0.00,,2013-04-17 22:42:00,
2013-04-17 15:53:00,72.0,29.0,30.04,SSW,200,6.0,15.0,20,0.00,,,0.00,,2013-04-17 22:53:00,
2013-04-17 16:02:00,72.0,29.0,30.03,SSW,203,3.0,11.0,20,0.00,,,0.00,,2013-04-17 23:02:00,
2013-04-17 16:12:00,72.0,31.0,30.03,South,180,5.0,12.0,22,0.00,,,0.00,,2013-04-17 23:12:00,
2013-04-17 16:22:00,72.0,31.0,30.03,South,180,5.0,12.0,22,0.00,,,0.00,,2013-04-17 23:22:00,
2013-04-17 16:32:00,73.0,26.0,30.03,SSW,198,2.0,11.0,17,0.00,,,0.00,,2013-04-17 23:32:00,
2013-04-17 16:42:00,73.0,30.0,30.03,WSW,242,3.0,11.0,20,0.00,,,0.00,,2013-04-17 23:42:00,
2013-04-17 16:52:00,73.0,30.0,30.03,WSW,242,3.0,11.0,20,0.00,,,0.00,,2013-04-17 23:52:00,
2013-04-17 17:01:00,72.0,27.0,30.02,SW,236,3.0,8.0,19,0.00,,,0.00,,2013-04-18 00:01:00,
2013-04-17 17:12:00,72.0,27.0,30.02,SW,236,3.0,8.0,19,0.00,,,0.00,,2013-04-18 00:12:00,
2013-04-17 17:22:00,72.0,27.0,30.02,SW,236,3.0,8.0,19,0.00,,,0.00,,2013-04-18 00:22:00,
2013-04-17 17:32:00,72.0,31.0,30.02,South,186,2.0,9.0,22,0.00,,,0.00,,2013-04-18 00:32:00,
2013-04-17 17:42:00,71.0,29.0,30.02,SSW,195,4.0,10.0,21,0.00,,,0.00,,2013-04-18 00:42:00,
2013-04-17 17:52:00,71.0,29.0,30.02,SSW,195,4.0,10.0,21,0.00,,,0.00,,2013-04-18 00:52:00,
2013-04-17 18:02:00,71.0,33.0,30.02,South,186,4.0,9.0,25,0.00,,,0.00,,2013-04-18 01:02:00,
2013-04-17 18:11:00,70.0,36.0,30.03,SW,222,2.0,10.0,29,0.00,,,0.00,,2013-04-18 01:11:00,
2013-04-17 18:22:00,70.0,36.0,30.03,SW,222,2.0,10.0,29,0.00,,,0.00,,2013-04-18 01:22:00,
2013-04-17 18:32:00,69.0,36.0,30.03,SSW,207,3.0,8.0,30,0.00,,,0.00,,2013-04-18 01:32:00,
2013-04-17 18:42:00,69.0,36.0,30.03,SSW,207,3.0,8.0,30,0.00,,,0.00,,2013-04-18 01:42:00,
2013-04-17 18:52:00,69.0,36.0,30.03,SSW,207,3.0,8.0,30,0.00,,,0.00,,2013-04-18 01:52:00,
2013-04-17 19:01:00,67.0,40.0,30.03,SSW,201,1.0,7.0,37,0.00,,,0.00,,2013-04-18 02:01:00,
2013-04-17 19:12:00,66.0,42.0,30.04,WSW,240,1.0,4.0,41,0.00,,,0.00,,2013-04-18 02:12:00,
2013-04-17 19:22:00,66.0,42.0,30.04,WSW,240,1.0,4.0,41,0.00,,,0.00,,2013-04-18 02:22:00,
2013-04-17 19:32:00,65.0,43.0,30.04,WSW,245,0.0,3.0,44,0.00,,,0.00,,2013-04-18 02:32:00,
2013-04-17 19:42:00,65.0,43.0,30.04,WSW,245,0.0,3.0,44,0.00,,,0.00,,2013-04-18 02:42:00,
2013-04-17 19:51:00,65.0,43.0,30.04,WSW,245,0.0,3.0,44,0.00,,,0.00,,2013-04-18 02:51:00,
2013-04-17 20:02:00,62.0,43.0,30.05,West,259,0.0,1.0,50,0.00,,,0.00,,2013-04-18 03:02:00,
2013-04-17 20:11:00,61.0,43.0,30.06,West,259,0.0,0.0,52,0.00,,,0.00,,2013-04-18 03:11:00,
2013-04-17 20:21:00,61.0,43.0,30.06,West,259,0.0,0.0,52,0.00,,,0.00,,2013-04-18 03:21:00,
2013-04-17 20:33:00,59.0,43.0,30.06,West,259,0.0,1.0,55,0.00,,,0.00,,2013-04-18 03:33:00,
2013-04-17 20:42:00,57.0,42.0,30.07,West,259,0.0,0.0,57,0.00,,,0.00,,2013-04-18 03:42:00,
2013-04-17 20:53:00,57.0,42.0,30.07,West,259,0.0,0.0,57,0.00,,,0.00,,2013-04-18 03:53:00,
2013-04-17 21:03:00,56.0,42.0,30.08,West,259,0.0,1.0,59,0.00,,,0.00,,2013-04-18 04:03:00,
2013-04-17 21:13:00,56.0,42.0,30.08,West,259,0.0,1.0,59,0.00,,,0.00,,2013-04-18 04:13:00,
2013-04-17 21:23:00,55.0,42.0,30.09,West,259,0.0,0.0,62,0.00,,,0.00,,2013-04-18 04:23:00,
2013-04-17 21:32:00,53.0,41.0,30.09,West,259,0.0,0.0,64,0.00,,,0.00,,2013-04-18 04:32:00,
2013-04-17 21:43:00,52.0,40.0,30.09,West,259,0.0,0.0,64,0.00,,,0.00,,2013-04-18 04:43:00,
2013-04-17 21:52:00,52.0,40.0,30.09,West,259,0.0,0.0,64,0.00,,,0.00,,2013-04-18 04:52:00,
2013-04-17 22:02:00,52.0,41.0,30.10,West,259,0.0,0.0,66,0.00,,,0.00,,2013-04-18 05:02:00,
2013-04-17 22:12:00,51.0,40.0,30.10,West,259,0.0,1.0,65,0.00,,,0.00,,2013-04-18 05:12:00,
2013-04-17 22:21:00,51.0,40.0,30.10,West,259,0.0,1.0,65,0.00,,,0.00,,2013-04-18 05:21:00,
2013-04-17 22:32:00,51.0,39.0,30.11,West,259,0.0,0.0,63,0.00,,,0.00,,2013-04-18 05:32:00,
2013-04-17 22:42:00,50.0,38.0,30.11,West,259,0.0,0.0,62,0.00,,,0.00,,2013-04-18 05:42:00,
2013-04-17 22:52:00,50.0,38.0,30.11,West,259,0.0,0.0,62,0.00,,,0.00,,2013-04-18 05:52:00,
2013-04-17 23:02:00,49.0,36.0,30.11,West,259,0.0,0.0,61,0.00,,,0.00,,2013-04-18 06:02:00,
2013-04-17 23:12:00,49.0,36.0,30.11,West,259,0.0,0.0,61,0.00,,,0.00,,2013-04-18 06:12:00,
2013-04-17 23:21:00,49.0,34.0,30.11,West,259,0.0,0.0,57,0.00,,,0.00,,2013-04-18 06:21:00,
2013-04-17 23:32:00,49.0,33.0,30.11,West,259,0.0,0.0,54,0.00,,,0.00,,2013-04-18 06:32:00,
2013-04-17 23:42:00,49.0,31.0,30.11,West,259,0.0,0.0,50,0.00,,,0.00,,2013-04-18 06:42:00,
2013-04-17 23:51:00,49.0,31.0,30.11,West,259,0.0,0.0,50,0.00,,,0.00,,2013-04-18 06:51:00,